Time;durP1;ratioP1;P1;durP2;ratioP2;P2;SDS_P1;SDS_P2;PMS_P1;PMS_P2;Temp;Humidity;BMP_temperature;BMP_pressure;BME280_temperature;BME280_humidity;BME280_pressure;Samples;Min_cycle;Max_cycle;Signal;HPM_P1;HPM_P2
2022/04/07 00:01:30;;;;;;;14.40;8.00;;;2.30;99.90;;;;;;4982916;28;20101;-65
2022/04/07 00:03:57;;;;;;;13.73;7.38;;;2.30;99.90;;;;;;4985756;28;20046;-64
2022/04/07 00:06:24;;;;;;;14.80;8.48;;;2.40;99.90;;;;;;4978379;28;20093;-66
2022/04/07 00:08:51;;;;;;;17.30;8.90;;;2.50;99.90;;;;;;4983923;28;20082;-70
2022/04/07 00:11:18;;;;;;;18.38;9.50;;;2.60;99.90;;;;;;4990572;28;20100;-67
2022/04/07 00:13:45;;;;;;;19.95;9.40;;;2.60;99.90;;;;;;4980442;28;20146;-65
2022/04/07 00:16:12;;;;;;;26.08;10.00;;;2.70;99.90;;;;;;4980348;28;20100;-69
2022/04/07 00:18:39;;;;;;;28.38;13.93;;;2.80;99.90;;;;;;4980895;28;20053;-65
2022/04/07 00:21:11;;;;;;;38.95;17.05;;;2.90;99.90;;;;;;4978285;28;20070;-66
2022/04/07 00:23:40;;;;;;;35.08;17.27;;;3.10;99.90;;;;;;4982231;28;20065;-66
2022/04/07 00:26:07;;;;;;;40.88;18.27;;;3.40;99.90;;;;;;4952309;28;20058;-65
2022/04/07 00:28:34;;;;;;;41.08;19.88;;;3.50;99.90;;;;;;4974104;28;20153;-65
2022/04/07 00:31:01;;;;;;;49.05;18.35;;;3.70;99.90;;;;;;4980167;28;20097;-64
2022/04/07 00:33:29;;;;;;;40.05;18.35;;;3.80;99.90;;;;;;4977898;28;20050;-64
2022/04/07 00:35:55;;;;;;;42.40;20.00;;;3.90;99.90;;;;;;4980444;28;20058;-65
2022/04/07 00:38:22;;;;;;;50.22;21.65;;;4.10;99.90;;;;;;4986228;28;20384;-65
2022/04/07 00:40:49;;;;;;;40.38;19.13;;;4.20;99.90;;;;;;4975546;28;20128;-64
2022/04/07 00:43:33;;;;;;;47.92;22.73;;;4.40;99.90;;;;;;4980185;28;20392;-67
2022/04/07 00:46:01;;;;;;;50.35;24.02;;;4.50;99.90;;;;;;4982682;28;20141;-64
2022/04/07 00:48:29;;;;;;;49.83;23.25;;;4.50;99.90;;;;;;4982301;28;20064;-69
2022/04/07 00:50:56;;;;;;;51.65;24.40;;;4.60;99.90;;;;;;4972993;28;20685;-67
2022/04/07 00:53:24;;;;;;;51.47;24.48;;;4.70;99.90;;;;;;4970343;28;20169;-64
2022/04/07 00:55:51;;;;;;;47.75;25.58;;;4.80;99.90;;;;;;4974188;28;20093;-66
2022/04/07 00:58:19;;;;;;;42.45;23.25;;;4.90;99.90;;;;;;4977567;28;20124;-65
2022/04/07 01:00:46;;;;;;;50.95;24.23;;;4.90;99.90;;;;;;4982051;28;20043;-64
2022/04/07 01:03:14;;;;;;;42.88;22.98;;;5.00;99.90;;;;;;4990049;28;20054;-64
2022/04/07 01:05:41;;;;;;;40.83;22.65;;;5.10;99.90;;;;;;4978899;28;20050;-66
2022/04/07 01:08:09;;;;;;;50.80;22.98;;;5.10;99.90;;;;;;4969153;28;20042;-64
2022/04/07 01:10:37;;;;;;;60.47;24.30;;;5.10;99.90;;;;;;4975898;28;20862;-70
2022/04/07 01:13:04;;;;;;;38.42;21.17;;;5.20;99.90;;;;;;4984542;28;20056;-65
2022/04/07 01:15:31;;;;;;;48.45;25.77;;;5.20;99.90;;;;;;4983257;28;20050;-66
2022/04/07 01:18:00;;;;;;;42.97;21.75;;;5.30;99.90;;;;;;4982173;28;20904;-66
2022/04/07 01:20:27;;;;;;;42.33;22.60;;;5.30;99.90;;;;;;4980264;28;20069;-67
2022/04/07 01:22:56;;;;;;;39.15;21.80;;;5.30;99.90;;;;;;4977726;28;20046;-67
2022/04/07 01:25:27;;;;;;;30.60;19.20;;;5.30;99.90;;;;;;4973589;28;20125;-65
2022/04/07 01:27:54;;;;;;;30.52;19.52;;;5.40;99.90;;;;;;4979943;28;20065;-65
2022/04/07 01:30:22;;;;;;;40.10;16.63;;;5.50;99.90;;;;;;4974801;28;20047;-64
2022/04/07 01:32:59;;;;;;;31.38;16.65;;;5.50;99.90;;;;;;4978401;28;20141;-64
2022/04/07 01:35:27;;;;;;;28.48;15.88;;;5.60;99.90;;;;;;4972196;28;20063;-64
2022/04/07 01:37:55;;;;;;;24.35;14.18;;;5.60;99.90;;;;;;4971971;28;20050;-65
2022/04/07 01:40:26;;;;;;;25.55;14.10;;;5.70;99.90;;;;;;4972063;28;20142;-67
2022/04/07 01:42:54;;;;;;;20.50;13.00;;;5.70;99.90;;;;;;4971438;28;20081;-66
2022/04/07 01:45:21;;;;;;;24.58;14.65;;;5.70;99.90;;;;;;4977722;28;20146;-65
2022/04/07 01:47:51;;;;;;;32.35;15.82;;;5.70;99.90;;;;;;4974172;28;20139;-65
2022/04/07 01:50:20;;;;;;;26.10;12.20;;;5.70;99.90;;;;;;4977524;28;20241;-66
2022/04/07 01:52:48;;;;;;;22.07;13.83;;;5.80;99.90;;;;;;4975225;28;20257;-68
2022/04/07 01:55:16;;;;;;;23.20;11.77;;;5.80;99.90;;;;;;4971815;28;20432;-64
2022/04/07 01:57:44;;;;;;;18.52;10.45;;;5.80;99.90;;;;;;4969941;28;20042;-66
2022/04/07 02:00:12;;;;;;;20.17;11.80;;;5.80;99.90;;;;;;4981006;28;20046;-65
2022/04/07 02:02:39;;;;;;;19.75;10.77;;;5.90;99.90;;;;;;4979281;28;20058;-65
2022/04/07 02:05:11;;;;;;;20.88;10.07;;;5.90;99.90;;;;;;4981962;28;20632;-64
2022/04/07 02:07:41;;;;;;;19.30;10.75;;;5.80;99.90;;;;;;4978633;28;20133;-67
2022/04/07 02:10:13;;;;;;;15.38;10.82;;;5.90;99.90;;;;;;4984916;28;20051;-64
2022/04/07 02:12:41;;;;;;;17.75;11.60;;;5.90;99.90;;;;;;4975074;28;20391;-65
2022/04/07 02:15:10;;;;;;;17.45;11.20;;;5.80;99.90;;;;;;4976964;28;20058;-65
2022/04/07 02:17:36;;;;;;;20.90;12.00;;;5.80;99.90;;;;;;4986022;28;20161;-68
2022/04/07 02:20:06;;;;;;;19.08;11.60;;;5.80;99.90;;;;;;4976284;28;20472;-66
2022/04/07 02:22:33;;;;;;;20.77;12.40;;;5.90;99.90;;;;;;4964606;28;20445;-68
2022/04/07 02:25:00;;;;;;;18.33;12.10;;;5.80;99.90;;;;;;4966721;28;20555;-67
2022/04/07 02:27:35;;;;;;;20.33;10.43;;;5.90;99.90;;;;;;4968488;28;20560;-65
2022/04/07 02:30:07;;;;;;;16.10;11.82;;;5.80;99.90;;;;;;4968487;28;20113;-66
2022/04/07 02:32:34;;;;;;;19.95;9.98;;;5.80;99.90;;;;;;4971373;28;20097;-67
2022/04/07 02:35:01;;;;;;;16.90;9.55;;;5.80;99.90;;;;;;4968886;28;20393;-66
2022/04/07 02:37:28;;;;;;;16.38;10.73;;;5.80;99.90;;;;;;4972970;28;20062;-68
2022/04/07 02:39:54;;;;;;;16.42;10.80;;;5.80;99.90;;;;;;4977536;28;20496;-65
2022/04/07 02:42:21;;;;;;;20.63;10.35;;;5.90;99.90;;;;;;4943769;28;20541;-67
2022/04/07 02:44:48;;;;;;;15.23;9.55;;;5.90;99.90;;;;;;4972645;28;20393;-67
2022/04/07 02:47:17;;;;;;;18.98;9.30;;;5.90;99.90;;;;;;4970751;28;20061;-67
2022/04/07 02:49:45;;;;;;;15.55;8.15;;;5.90;99.90;;;;;;4980003;28;20043;-65
2022/04/07 02:52:12;;;;;;;14.07;8.00;;;5.80;99.90;;;;;;4984241;28;20080;-65
2022/04/07 02:54:39;;;;;;;18.45;7.53;;;5.80;99.90;;;;;;4973636;28;20101;-66
2022/04/07 02:57:06;;;;;;;15.85;8.75;;;5.80;99.90;;;;;;4981224;28;20452;-68
2022/04/07 02:59:33;;;;;;;8.18;6.15;;;5.80;99.90;;;;;;4976291;28;20172;-66
2022/04/07 03:02:00;;;;;;;11.07;5.75;;;5.80;99.90;;;;;;4978899;28;20046;-65
2022/04/07 03:04:27;;;;;;;12.90;5.47;;;5.80;99.90;;;;;;4974994;28;20084;-66
2022/04/07 03:06:54;;;;;;;6.18;5.18;;;5.80;99.90;;;;;;4977205;28;20121;-65
2022/04/07 03:09:22;;;;;;;8.43;4.57;;;5.80;99.90;;;;;;4981524;28;20508;-65
2022/04/07 03:11:49;;;;;;;6.97;4.50;;;5.80;99.90;;;;;;4991148;28;20471;-69
2022/04/07 03:14:16;;;;;;;8.68;4.65;;;5.80;99.90;;;;;;4986821;28;20042;-65
2022/04/07 03:16:48;;;;;;;9.02;5.30;;;5.80;99.90;;;;;;4971118;28;20101;-65
2022/04/07 03:19:16;;;;;;;11.32;8.70;;;5.80;99.90;;;;;;4974735;28;20556;-65
2022/04/07 03:21:44;;;;;;;18.65;11.93;;;5.70;99.90;;;;;;4976764;28;20909;-65
2022/04/07 03:24:12;;;;;;;22.50;12.88;;;5.60;99.90;;;;;;4976863;28;20046;-65
2022/04/07 03:26:58;;;;;;;23.08;13.80;;;5.60;99.90;;;;;;4976754;28;20061;-66
2022/04/07 03:29:27;;;;;;;24.15;13.98;;;5.50;99.90;;;;;;4985803;28;20431;-68
2022/04/07 03:31:54;;;;;;;19.92;11.55;;;5.50;99.90;;;;;;4981854;28;20055;-64
2022/04/07 03:34:21;;;;;;;22.67;12.82;;;5.50;99.90;;;;;;4976754;28;20042;-65
2022/04/07 03:36:48;;;;;;;24.63;12.60;;;5.50;99.90;;;;;;4972845;28;20589;-65
2022/04/07 03:39:15;;;;;;;19.58;11.43;;;5.50;99.90;;;;;;4978225;28;20043;-65
2022/04/07 03:41:42;;;;;;;17.73;14.57;;;5.50;99.90;;;;;;4975638;28;20082;-66
2022/04/07 03:44:10;;;;;;;18.60;12.93;;;5.50;99.90;;;;;;4974187;28;20069;-65
2022/04/07 03:46:37;;;;;;;21.83;12.55;;;5.50;99.90;;;;;;4978451;28;20046;-65
2022/04/07 03:49:04;;;;;;;23.10;14.80;;;5.50;99.90;;;;;;4975026;28;20149;-64
2022/04/07 03:51:31;;;;;;;22.63;13.20;;;5.50;99.90;;;;;;4974311;28;20042;-68
2022/04/07 03:53:59;;;;;;;24.00;15.75;;;5.50;99.90;;;;;;4969980;28;20133;-68
2022/04/07 03:56:26;;;;;;;25.55;15.70;;;5.50;99.90;;;;;;4971938;28;20058;-64
2022/04/07 03:58:53;;;;;;;24.77;11.82;;;5.50;99.90;;;;;;4977522;28;20113;-66
2022/04/07 04:01:20;;;;;;;22.38;12.30;;;5.40;99.90;;;;;;4981772;28;20058;-70
2022/04/07 04:03:46;;;;;;;20.98;12.98;;;5.40;99.90;;;;;;4976173;28;20038;-64
2022/04/07 04:06:13;;;;;;;19.45;11.15;;;5.40;99.90;;;;;;4984098;28;20050;-65
2022/04/07 04:08:40;;;;;;;19.33;11.65;;;5.30;99.90;;;;;;4980471;28;20249;-66
2022/04/07 04:11:07;;;;;;;19.98;10.68;;;5.30;99.90;;;;;;4976206;28;20042;-67
2022/04/07 04:13:34;;;;;;;12.57;8.38;;;5.20;99.90;;;;;;4983867;28;20054;-67
2022/04/07 04:16:01;;;;;;;16.63;7.40;;;5.20;99.90;;;;;;4984727;28;20086;-64
2022/04/07 04:18:28;;;;;;;10.75;6.68;;;5.20;99.90;;;;;;4984284;28;20050;-67
2022/04/07 04:20:55;;;;;;;12.10;6.10;;;5.20;99.90;;;;;;4977195;28;20237;-66
2022/04/07 04:23:22;;;;;;;12.35;7.35;;;5.10;99.90;;;;;;4984780;28;20531;-65
2022/04/07 04:25:49;;;;;;;8.90;7.45;;;5.10;99.90;;;;;;4977012;28;20081;-65
2022/04/07 04:28:16;;;;;;;15.30;7.15;;;5.10;99.90;;;;;;4971455;28;20517;-66
2022/04/07 04:30:43;;;;;;;11.10;6.97;;;5.10;99.90;;;;;;4975080;28;20078;-64
2022/04/07 04:33:10;;;;;;;13.77;6.95;;;5.10;99.90;;;;;;4971114;28;20726;-64
2022/04/07 04:35:37;;;;;;;16.92;8.57;;;5.10;99.90;;;;;;4957060;28;20050;-66
2022/04/07 04:38:04;;;;;;;17.27;8.48;;;5.10;99.90;;;;;;4975757;28;20070;-64
2022/04/07 04:40:31;;;;;;;7.82;5.65;;;5.10;99.90;;;;;;4976391;28;20071;-66
2022/04/07 04:42:59;;;;;;;11.40;6.10;;;5.10;99.90;;;;;;4981831;28;20113;-66
2022/04/07 04:45:27;;;;;;;11.80;5.75;;;5.10;99.90;;;;;;4967453;28;20058;-64
2022/04/07 04:47:54;;;;;;;8.35;5.30;;;5.10;99.90;;;;;;4968464;28;20069;-64
2022/04/07 04:50:21;;;;;;;8.27;4.95;;;5.10;99.90;;;;;;4982819;28;20137;-64
2022/04/07 04:52:48;;;;;;;11.18;7.55;;;5.10;99.90;;;;;;4976783;28;20070;-64
2022/04/07 04:55:16;;;;;;;13.35;6.47;;;5.10;99.90;;;;;;4982187;28;20266;-64
2022/04/07 04:57:43;;;;;;;12.40;7.70;;;5.10;99.90;;;;;;4977981;28;20146;-67
2022/04/07 05:00:11;;;;;;;8.93;6.40;;;5.10;99.90;;;;;;4975898;28;20046;-64
2022/04/07 05:02:39;;;;;;;10.65;7.47;;;5.10;99.90;;;;;;4973775;28;20042;-64
2022/04/07 05:05:07;;;;;;;13.02;8.80;;;5.10;99.90;;;;;;4979600;28;20691;-65
2022/04/07 05:07:35;;;;;;;16.88;12.55;;;5.10;99.90;;;;;;4973332;28;20047;-65
2022/04/07 05:10:04;;;;;;;19.25;13.00;;;5.10;99.90;;;;;;4988046;28;20052;-64
2022/04/07 05:12:31;;;;;;;20.70;14.80;;;5.20;99.90;;;;;;4989658;28;20042;-65
2022/04/07 05:14:57;;;;;;;30.20;16.60;;;5.20;99.90;;;;;;4985483;28;20375;-65
2022/04/07 05:17:24;;;;;;;28.55;17.15;;;5.20;99.90;;;;;;4978509;28;20145;-65
2022/04/07 05:19:51;;;;;;;24.30;15.25;;;5.20;99.90;;;;;;4980705;28;20196;-63
2022/04/07 05:22:18;;;;;;;34.78;16.17;;;5.20;99.90;;;;;;4972607;28;20074;-65
2022/04/07 05:24:45;;;;;;;26.20;14.95;;;5.20;99.90;;;;;;4978260;28;20047;-65
2022/04/07 05:27:12;;;;;;;26.75;16.17;;;5.30;99.90;;;;;;4977575;28;20750;-64
2022/04/07 05:29:39;;;;;;;24.65;15.18;;;5.40;99.90;;;;;;4976852;28;20042;-65
2022/04/07 05:32:06;;;;;;;30.30;14.90;;;5.40;99.90;;;;;;4978332;28;20133;-70
2022/04/07 05:34:33;;;;;;;27.42;15.07;;;5.40;99.90;;;;;;4984018;28;20435;-69
2022/04/07 05:37:00;;;;;;;22.45;13.20;;;5.50;99.90;;;;;;4983151;28;20038;-66
2022/04/07 05:39:27;;;;;;;30.42;15.57;;;5.50;99.90;;;;;;4986962;28;20150;-66
2022/04/07 05:41:54;;;;;;;24.52;12.57;;;5.50;99.90;;;;;;4983444;28;20065;-64
2022/04/07 05:44:21;;;;;;;22.80;13.23;;;5.60;99.90;;;;;;4983759;28;20133;-65
2022/04/07 05:46:47;;;;;;;24.88;12.88;;;5.60;99.90;;;;;;4980667;28;20085;-66
2022/04/07 05:49:15;;;;;;;22.02;11.15;;;5.60;99.90;;;;;;4979969;28;20508;-64
2022/04/07 05:51:41;;;;;;;19.88;10.85;;;5.60;99.90;;;;;;4948492;28;20057;-64
2022/04/07 05:54:08;;;;;;;16.35;10.25;;;5.60;99.90;;;;;;4975306;28;20130;-65
2022/04/07 05:56:35;;;;;;;19.55;9.15;;;5.60;99.90;;;;;;4982027;28;20540;-67
2022/04/07 05:59:02;;;;;;;17.48;8.60;;;5.60;99.90;;;;;;4970593;28;20105;-66
2022/04/07 06:01:30;;;;;;;22.45;11.32;;;5.60;99.90;;;;;;4973658;28;20054;-67
2022/04/07 06:03:58;;;;;;;12.60;7.15;;;5.70;99.90;;;;;;4976682;28;20046;-68
2022/04/07 06:06:25;;;;;;;16.88;9.25;;;5.60;99.90;;;;;;4968173;28;20043;-64
2022/04/07 06:08:52;;;;;;;9.60;7.25;;;5.70;99.90;;;;;;4979165;28;20457;-65
2022/04/07 06:11:18;;;;;;;9.48;6.85;;;5.60;99.90;;;;;;4976523;28;20805;-64
2022/04/07 06:13:45;;;;;;;11.70;6.25;;;5.60;99.90;;;;;;4980494;28;20427;-68
2022/04/07 06:16:12;;;;;;;11.02;6.32;;;5.60;99.90;;;;;;4977056;28;20864;-68
2022/04/07 06:18:39;;;;;;;19.10;7.40;;;5.60;99.90;;;;;;4973849;28;20061;-66
2022/04/07 06:21:06;;;;;;;11.73;5.35;;;5.60;99.90;;;;;;4968292;28;20126;-65
2022/04/07 06:23:33;;;;;;;9.82;6.38;;;5.70;99.90;;;;;;4979993;28;20470;-66
2022/04/07 06:26:00;;;;;;;9.35;4.95;;;5.70;99.90;;;;;;4978969;28;20093;-64
2022/04/07 06:28:27;;;;;;;13.10;5.40;;;5.70;99.90;;;;;;4976981;28;20064;-65
2022/04/07 06:30:54;;;;;;;10.93;4.45;;;5.80;99.90;;;;;;4973320;28;20069;-67
2022/04/07 06:33:22;;;;;;;9.20;5.38;;;5.80;99.90;;;;;;4972417;28;20039;-66
2022/04/07 06:35:49;;;;;;;6.82;3.65;;;5.90;99.90;;;;;;4971063;28;20050;-66
2022/04/07 06:38:17;;;;;;;8.82;4.68;;;6.00;99.90;;;;;;4973900;28;20084;-65
2022/04/07 06:40:44;;;;;;;14.90;5.03;;;6.00;99.90;;;;;;4975359;28;20046;-67
2022/04/07 06:43:11;;;;;;;6.95;4.43;;;6.00;99.90;;;;;;4980024;28;20436;-65
2022/04/07 06:45:38;;;;;;;9.73;3.92;;;6.00;99.90;;;;;;4978420;28;20516;-65
2022/04/07 06:48:06;;;;;;;6.82;4.47;;;6.10;99.90;;;;;;4970551;28;20054;-64
2022/04/07 06:50:32;;;;;;;6.28;3.63;;;6.20;99.90;;;;;;4970924;28;20106;-65
2022/04/07 06:53:00;;;;;;;8.98;3.63;;;6.20;99.90;;;;;;4978360;28;20173;-66
2022/04/07 06:55:28;;;;;;;7.75;3.33;;;6.20;99.90;;;;;;4971379;28;20042;-67
2022/04/07 06:57:57;;;;;;;8.90;3.75;;;6.20;99.90;;;;;;4970144;28;20051;-68
2022/04/07 07:00:26;;;;;;;6.72;3.58;;;6.30;99.90;;;;;;4969774;28;20124;-66
2022/04/07 07:02:55;;;;;;;8.80;3.47;;;6.30;99.90;;;;;;4967340;28;20055;-65
2022/04/07 07:05:25;;;;;;;4.65;2.70;;;6.30;99.90;;;;;;4969201;28;20046;-67
2022/04/07 07:07:52;;;;;;;4.43;3.40;;;6.30;99.90;;;;;;4972420;28;20641;-65
2022/04/07 07:10:25;;;;;;;6.30;2.67;;;6.40;99.90;;;;;;4975587;28;20050;-66
2022/04/07 07:12:53;;;;;;;6.20;2.67;;;6.30;99.90;;;;;;4966758;28;20043;-65
2022/04/07 07:15:21;;;;;;;7.53;2.50;;;6.30;99.90;;;;;;4979215;28;20115;-64
2022/04/07 07:17:48;;;;;;;4.63;3.25;;;6.30;99.90;;;;;;4966256;28;20089;-67
2022/04/07 07:20:16;;;;;;;3.83;2.70;;;6.30;99.90;;;;;;4977376;28;20198;-64
2022/04/07 07:22:43;;;;;;;2.25;1.65;;;6.20;99.90;;;;;;4964470;28;20078;-67
2022/04/07 07:25:11;;;;;;;6.13;2.17;;;6.30;99.90;;;;;;4978193;28;20070;-66
2022/04/07 07:27:40;;;;;;;4.78;2.80;;;6.20;99.90;;;;;;4977480;28;20054;-68
2022/04/07 07:30:11;;;;;;;6.25;2.75;;;6.20;99.90;;;;;;4975351;28;20121;-68
2022/04/07 07:32:45;;;;;;;5.90;2.45;;;6.20;99.90;;;;;;4966016;28;20074;-65
2022/04/07 07:35:13;;;;;;;5.03;2.17;;;6.10;99.90;;;;;;4979693;28;20058;-65
2022/04/07 07:37:51;;;;;;;4.00;2.28;;;6.10;99.90;;;;;;4969904;28;20620;-65
2022/04/07 07:40:21;;;;;;;4.53;1.80;;;6.20;99.90;;;;;;4980222;28;20567;-65
2022/04/07 07:42:49;;;;;;;5.15;3.08;;;6.30;99.90;;;;;;4966520;28;20046;-67
2022/04/07 07:45:18;;;;;;;3.17;2.25;;;6.40;99.90;;;;;;4977536;28;20460;-65
2022/04/07 07:48:05;;;;;;;5.65;2.58;;;6.30;99.90;;;;;;4973115;28;20496;-64
2022/04/07 07:50:32;;;;;;;3.60;1.75;;;6.30;99.90;;;;;;4979383;28;20129;-67
2022/04/07 07:52:58;;;;;;;5.07;2.45;;;6.40;99.90;;;;;;4971440;28;20121;-65
2022/04/07 07:55:25;;;;;;;2.67;2.30;;;6.40;99.90;;;;;;4973379;28;20144;-68
2022/04/07 07:57:52;;;;;;;2.38;2.17;;;6.40;99.90;;;;;;4970979;28;20754;-65
2022/04/07 08:00:19;;;;;;;5.93;2.60;;;6.40;99.90;;;;;;4972038;28;20038;-64
2022/04/07 08:02:46;;;;;;;3.85;2.03;;;6.40;99.90;;;;;;4983392;28;20134;-65
2022/04/07 08:05:13;;;;;;;2.80;2.28;;;6.50;99.90;;;;;;4983697;28;20058;-65
2022/04/07 08:07:41;;;;;;;3.80;2.38;;;6.60;99.90;;;;;;4976944;28;20051;-66
2022/04/07 08:10:09;;;;;;;4.38;2.05;;;6.80;99.90;;;;;;4979737;28;20595;-66
2022/04/07 08:12:38;;;;;;;3.88;3.47;;;7.00;99.90;;;;;;4966862;28;20518;-66
2022/04/07 08:15:05;;;;;;;2.63;2.25;;;7.10;99.90;;;;;;4979310;28;20054;-65
2022/04/07 08:17:34;;;;;;;3.25;2.00;;;7.20;99.90;;;;;;4975142;28;20098;-71
2022/04/07 08:20:04;;;;;;;2.40;1.92;;;7.20;99.90;;;;;;4980706;28;20081;-65
2022/04/07 08:22:31;;;;;;;1.98;1.70;;;7.30;99.90;;;;;;4977051;28;20078;-67
2022/04/07 08:24:58;;;;;;;2.53;1.25;;;7.30;99.90;;;;;;4980213;28;20565;-67
2022/04/07 08:27:26;;;;;;;2.65;1.35;;;7.30;99.90;;;;;;4977028;28;20124;-64
2022/04/07 08:29:53;;;;;;;1.58;1.15;;;7.30;99.90;;;;;;4976063;28;20052;-65
2022/04/07 08:32:20;;;;;;;1.70;1.60;;;7.30;99.90;;;;;;4976448;28;20046;-65
2022/04/07 08:34:47;;;;;;;3.75;1.98;;;7.20;99.90;;;;;;4971549;28;20070;-65
2022/04/07 08:37:14;;;;;;;2.30;1.98;;;7.20;99.90;;;;;;4976330;28;20042;-65
2022/04/07 08:39:41;;;;;;;1.90;1.77;;;7.20;99.90;;;;;;4972623;28;20126;-68
2022/04/07 08:42:08;;;;;;;2.28;1.88;;;7.20;99.90;;;;;;4985039;28;20776;-66
2022/04/07 08:44:35;;;;;;;1.73;1.63;;;7.20;99.90;;;;;;4980823;28;20181;-64
2022/04/07 08:47:02;;;;;;;2.10;1.67;;;7.10;99.90;;;;;;4981450;28;20054;-65
2022/04/07 08:49:31;;;;;;;5.03;2.75;;;7.10;99.90;;;;;;4984953;28;20042;-66
2022/04/07 08:51:59;;;;;;;3.25;2.88;;;7.00;99.90;;;;;;4969301;28;20070;-66
2022/04/07 08:54:26;;;;;;;3.60;2.78;;;7.10;99.90;;;;;;4970876;28;20050;-67
2022/04/07 08:56:53;;;;;;;3.20;2.90;;;7.00;99.90;;;;;;4970256;28;20157;-65
2022/04/07 08:59:21;;;;;;;5.82;3.97;;;7.10;99.90;;;;;;4967405;28;20051;-68
2022/04/07 09:01:47;;;;;;;4.40;3.40;;;7.10;99.90;;;;;;4973408;28;20094;-68
2022/04/07 09:04:15;;;;;;;7.28;4.72;;;7.10;99.90;;;;;;4989694;28;20034;-64
2022/04/07 09:06:42;;;;;;;7.18;5.50;;;7.30;99.90;;;;;;4965595;28;20047;-68
2022/04/07 09:09:14;;;;;;;10.10;6.32;;;7.30;99.90;;;;;;4966676;28;20050;-68
2022/04/07 09:11:41;;;;;;;9.82;7.95;;;7.30;99.90;;;;;;4970279;28;20643;-68
2022/04/07 09:14:10;;;;;;;10.07;8.20;;;7.20;99.90;;;;;;4969608;28;20770;-65
2022/04/07 09:16:38;;;;;;;15.02;10.13;;;7.20;99.90;;;;;;4972520;28;20853;-64
2022/04/07 09:19:06;;;;;;;20.20;10.70;;;7.10;99.90;;;;;;4970043;28;20732;-65
2022/04/07 09:21:37;;;;;;;16.10;11.60;;;7.00;99.90;;;;;;4978479;28;20108;-67
2022/04/07 09:24:07;;;;;;;18.80;11.77;;;7.00;99.90;;;;;;4977460;28;20109;-66
2022/04/07 09:26:35;;;;;;;18.67;12.40;;;7.00;99.90;;;;;;4971267;28;20046;-66
2022/04/07 09:29:09;;;;;;;20.88;13.02;;;7.10;99.90;;;;;;4963230;28;20063;-69
2022/04/07 09:31:39;;;;;;;23.90;16.20;;;7.10;99.90;;;;;;4970868;28;20050;-65
2022/04/07 09:34:06;;;;;;;23.75;16.95;;;7.00;99.90;;;;;;4970936;28;20053;-64
2022/04/07 09:36:33;;;;;;;21.90;14.30;;;7.10;99.90;;;;;;4973777;28;20158;-69
2022/04/07 09:39:04;;;;;;;22.52;15.68;;;7.10;99.90;;;;;;4975031;28;20181;-66
2022/04/07 09:41:31;;;;;;;;;;;7.10;99.90;;;;;;4969797;28;20042;-66
2022/04/07 09:43:59;;;;;;;22.05;14.93;;;7.10;99.90;;;;;;4972830;28;19944;-66
2022/04/07 09:46:35;;;;;;;29.23;16.88;;;7.00;99.90;;;;;;4979688;28;20632;-65
2022/04/07 09:49:07;;;;;;;21.95;15.27;;;7.00;99.90;;;;;;4971031;28;20061;-71
2022/04/07 09:51:48;;;;;;;25.42;17.70;;;7.00;99.90;;;;;;4973476;28;20679;-66
2022/04/07 09:54:16;;;;;;;23.75;16.83;;;7.00;99.90;;;;;;4977020;28;20124;-65
2022/04/07 09:56:48;;;;;;;28.08;17.33;;;7.00;99.90;;;;;;4970117;28;20105;-66
2022/04/07 09:59:19;;;;;;;24.08;17.45;;;7.10;99.90;;;;;;4973627;28;20038;-64
2022/04/07 10:01:49;;;;;;;23.40;15.88;;;7.10;99.90;;;;;;4973114;28;20054;-70
2022/04/07 10:04:19;;;;;;;25.42;16.90;;;7.10;99.90;;;;;;4978417;28;20113;-67
2022/04/07 10:06:47;;;;;;;25.08;15.48;;;7.10;99.90;;;;;;4967270;28;20053;-64
2022/04/07 10:09:17;;;;;;;24.02;16.05;;;7.20;99.90;;;;;;4965102;28;20045;-68
2022/04/07 10:11:44;;;;;;;25.35;15.70;;;7.20;99.90;;;;;;4978111;28;20049;-65
2022/04/07 10:14:14;;;;;;;23.30;18.27;;;7.20;99.90;;;;;;4993381;28;20053;-66
2022/04/07 10:16:44;;;;;;;26.08;15.88;;;7.20;99.90;;;;;;4981671;28;20133;-69
2022/04/07 10:19:35;;;;;;;20.15;15.07;;;7.20;99.90;;;;;;4975629;28;20046;-65
2022/04/07 10:22:31;;;;;;;21.10;15.40;;;7.20;99.90;;;;;;4975409;28;20055;-66
2022/04/07 10:25:03;;;;;;;22.75;15.82;;;7.20;99.90;;;;;;4972429;28;20061;-68
2022/04/07 10:27:38;;;;;;;23.95;15.38;;;7.20;99.90;;;;;;4977634;28;20062;-66
2022/04/07 10:30:10;;;;;;;27.17;15.40;;;7.20;99.90;;;;;;4983893;28;20098;-66
2022/04/07 10:32:49;;;;;;;24.83;15.90;;;7.10;99.90;;;;;;4970167;28;20129;-69
2022/04/07 10:35:32;;;;;;;25.15;16.00;;;7.20;99.90;;;;;;4981669;28;20694;-64
2022/04/07 10:38:02;;;;;;;24.85;14.45;;;7.10;99.90;;;;;;4978084;28;20341;-66
2022/04/07 10:40:35;;;;;;;19.02;13.40;;;7.20;99.90;;;;;;4976353;28;20149;-67
2022/04/07 10:43:37;;;;;;;25.77;16.10;;;7.20;99.90;;;;;;4971425;28;20118;-68
2022/04/07 10:46:08;;;;;;;21.38;15.27;;;7.30;99.90;;;;;;4966403;28;20503;-66
2022/04/07 10:48:49;;;;;;;21.00;15.15;;;7.30;99.90;;;;;;4983339;28;20065;-66
2022/04/07 10:51:16;;;;;;;23.75;15.30;;;7.50;99.90;;;;;;4982383;28;20404;-70
2022/04/07 10:53:52;;;;;;;15.10;13.00;;;7.60;99.90;;;;;;4979793;28;20038;-67
2022/04/07 10:56:39;;;;;;;14.32;12.35;;;7.70;99.90;;;;;;4971010;28;20495;-66
2022/04/07 10:59:21;;;;;;;17.25;11.00;;;7.70;99.90;;;;;;4973123;28;20065;-65
2022/04/07 11:01:55;;;;;;;15.23;10.45;;;7.60;99.90;;;;;;4967898;28;20129;-66
2022/04/07 11:04:22;;;;;;;12.02;9.98;;;7.50;99.90;;;;;;4976461;28;20051;-70
2022/04/07 11:07:07;;;;;;;13.85;9.43;;;7.60;99.90;;;;;;4966401;28;20054;-66
2022/04/07 11:09:40;;;;;;;12.68;10.52;;;7.60;99.90;;;;;;4970668;28;20126;-65
2022/04/07 11:12:19;;;;;;;17.13;11.38;;;7.60;99.90;;;;;;4983990;28;20887;-65
2022/04/07 11:14:48;;;;;;;17.13;11.40;;;7.60;99.90;;;;;;4971589;28;20117;-65
2022/04/07 11:17:43;;;;;;;11.70;9.27;;;7.70;99.90;;;;;;4958734;28;20050;-64
2022/04/07 11:20:22;;;;;;;13.90;9.85;;;7.60;99.90;;;;;;4976413;28;20078;-64
2022/04/07 11:22:54;;;;;;;12.93;9.70;;;7.70;99.90;;;;;;4971043;28;20085;-66
2022/04/07 11:25:43;;;;;;;11.15;9.68;;;7.50;99.90;;;;;;4967149;28;20149;-64
2022/04/07 11:28:22;;;;;;;11.55;7.57;;;7.50;99.90;;;;;;4974890;28;20058;-64
2022/04/07 11:31:04;;;;;;;8.35;6.22;;;7.40;99.90;;;;;;4976597;28;20145;-66
2022/04/07 11:33:40;;;;;;;7.68;6.43;;;7.30;99.90;;;;;;4964262;28;20240;-65
2022/04/07 11:36:10;;;;;;;8.55;7.07;;;7.30;99.90;;;;;;4975847;28;20065;-65
2022/04/07 11:38:48;;;;;;;7.97;5.72;;;7.30;99.90;;;;;;4977012;28;20042;-69
2022/04/07 11:41:17;;;;;;;12.00;6.05;;;7.30;99.90;;;;;;4979624;28;20197;-66
2022/04/07 11:43:46;;;;;;;8.68;5.72;;;7.20;99.90;;;;;;4980320;28;20097;-71
2022/04/07 11:46:14;;;;;;;13.52;6.90;;;7.20;99.90;;;;;;4977347;28;20096;-65
2022/04/07 11:49:00;;;;;;;8.43;5.97;;;7.10;99.90;;;;;;4982463;28;20050;-65
2022/04/07 11:51:28;;;;;;;7.95;4.88;;;7.10;99.90;;;;;;4982448;28;20117;-64
2022/04/07 11:53:57;;;;;;;10.50;5.38;;;7.00;99.90;;;;;;4987468;28;20421;-65
2022/04/07 11:56:28;;;;;;;13.45;6.45;;;7.10;99.90;;;;;;4937996;28;20057;-66
2022/04/07 11:58:58;;;;;;;7.07;4.70;;;7.20;99.90;;;;;;4964965;28;20471;-64
2022/04/07 12:01:25;;;;;;;10.10;6.57;;;7.20;99.90;;;;;;4966838;28;20482;-64
2022/04/07 12:03:53;;;;;;;9.35;6.45;;;7.30;99.90;;;;;;4964094;28;20645;-65
2022/04/07 12:06:25;;;;;;;8.23;6.85;;;7.40;99.90;;;;;;4969572;28;20133;-65
2022/04/07 12:08:53;;;;;;;9.55;6.10;;;7.50;99.90;;;;;;4964422;28;20854;-68
2022/04/07 12:11:21;;;;;;;10.02;7.40;;;7.60;99.90;;;;;;4967772;28;20038;-65
2022/04/07 12:13:50;;;;;;;8.82;6.10;;;7.60;99.90;;;;;;4969009;28;20073;-66
2022/04/07 12:16:17;;;;;;;6.97;6.10;;;7.50;99.90;;;;;;4966897;28;20046;-65
2022/04/07 12:18:53;;;;;;;9.70;5.97;;;7.60;99.90;;;;;;4963616;28;20046;-64
2022/04/07 12:21:22;;;;;;;11.15;6.70;;;7.50;99.90;;;;;;4970095;28;20104;-66
2022/04/07 12:24:11;;;;;;;12.07;6.75;;;7.40;99.90;;;;;;4967180;28;20247;-66
2022/04/07 12:26:49;;;;;;;10.88;6.88;;;7.40;99.90;;;;;;4970746;28;20161;-65
2022/04/07 12:29:22;;;;;;;10.60;7.85;;;7.30;99.90;;;;;;4968184;28;20034;-66
2022/04/07 12:32:06;;;;;;;10.10;7.43;;;7.30;99.90;;;;;;4971593;28;20123;-68
2022/04/07 12:34:55;;;;;;;9.38;7.18;;;7.30;99.90;;;;;;4966965;28;20477;-66
2022/04/07 12:37:33;;;;;;;11.55;7.30;;;7.20;99.90;;;;;;4968075;28;20059;-67
2022/04/07 12:40:01;;;;;;;8.75;7.63;;;7.20;99.90;;;;;;4968065;28;20468;-66
2022/04/07 12:42:28;;;;;;;12.43;8.32;;;7.20;99.90;;;;;;4969398;28;20043;-66
2022/04/07 12:45:06;;;;;;;11.20;7.82;;;7.10;99.90;;;;;;4967742;28;20504;-66
2022/04/07 12:47:33;;;;;;;13.63;10.70;;;7.10;99.90;;;;;;4971038;28;20082;-65
2022/04/07 12:50:03;;;;;;;12.50;9.18;;;7.10;99.90;;;;;;4968597;28;20081;-68
2022/04/07 12:52:33;;;;;;;16.85;10.95;;;7.10;99.90;;;;;;4971314;28;20100;-66
2022/04/07 12:55:01;;;;;;;;;;;7.00;99.90;;;;;;4967839;28;20227;-65
2022/04/07 12:57:38;;;;;;;16.40;10.75;;;7.00;99.90;;;;;;4971335;28;20080;-68